CST,Max TemperatureF,Mean TemperatureF,Min TemperatureF,Max Dew PointF,MeanDew PointF,Min DewpointF,Max Humidity, Mean Humidity, Min Humidity, Max Sea Level PressureIn, Mean Sea Level PressureIn, Min Sea Level PressureIn, Max VisibilityMiles, Mean VisibilityMiles, Min VisibilityMiles, Max Wind SpeedMPH, Mean Wind SpeedMPH, Max Gust SpeedMPH,PrecipitationIn, CloudCover, Events, WindDirDegrees
2012-12-1,53,44,35,52,43,33,98,90,73,30.15,29.96,29.83,10,5,1,10,5,,0.48,7,Rain-Thunderstorm,158
2012-12-2,53,45,37,52,45,37,100,92,72,30.06,29.95,29.82,7,4,1,9,4,,0.00,4,,275
2012-12-3,63,52,41,60,51,41,100,91,71,30.02,29.83,29.69,10,5,0,16,9,24,0.05,7,Fog-Rain,172
2012-12-4,53,40,26,41,30,16,97,65,43,30.31,30.08,29.91,10,10,10,20,8,32,0.00,0,,282
2012-12-5,35,27,19,27,19,13,85,69,50,30.43,30.34,30.18,10,10,10,8,5,,0.00,0,,85
2012-12-6,43,38,33,36,33,29,92,78,69,30.04,29.91,29.85,10,10,10,13,7,20,0.00,5,,198
2012-12-7,39,36,32,33,29,27,86,78,62,29.98,29.93,29.90,10,10,10,8,5,,0.00,5,,355
2012-12-8,35,32,29,29,28,26,92,84,75,30.10,30.01,29.91,10,10,5,9,7,18,0.00,5,,24
2012-12-9,34,33,32,33,31,28,100,94,78,30.09,29.88,29.67,10,5,1,14,7,18,0.22,8,Rain-Snow,74
2012-12-10,32,30,27,32,26,22,100,87,76,29.91,29.80,29.67,10,9,1,13,6,17,0.00,8,Snow,321
2012-12-11,31,25,19,25,21,17,93,79,62,30.07,29.94,29.89,10,10,7,20,8,24,0.00,5,Snow,218
2012-12-12,43,34,25,28,25,22,88,71,48,30.19,30.14,30.07,10,10,10,17,7,24,0.00,2,,185
2012-12-13,45,34,24,26,24,22,96,69,45,30.18,30.11,30.03,10,10,10,18,8,24,0.00,0,,194
2012-12-14,47,34,22,34,28,21,96,82,50,30.18,30.10,29.98,10,10,7,10,2,,0.00,0,,105
2012-12-15,44,40,35,44,39,32,100,92,73,29.96,29.69,29.52,10,6,2,15,8,23,0.35,8,Rain,135
2012-12-16,44,40,35,45,37,32,100,92,85,29.70,29.60,29.50,10,8,0,13,6,17,0.05,8,Fog-Rain,267
2012-12-17,35,30,25,33,26,22,91,85,79,29.73,29.70,29.68,10,9,7,9,5,,0.00,8,,314
2012-12-18,30,28,25,30,26,22,99,92,83,29.81,29.70,29.62,10,5,0,9,3,,0.10,8,Snow,54
2012-12-19,31,27,23,31,27,22,98,92,83,30.05,29.96,29.82,7,5,1,12,3,18,0.05,8,Snow,46
2012-12-20,33,32,30,32,32,28,100,98,91,29.84,29.42,29.19,10,2,0,22,13,30,0.98,8,Snow,11
2012-12-21,29,22,13,27,16,8,88,81,76,30.18,29.94,29.53,10,9,2,20,14,30,0.00,5,Snow,304
2012-12-22,25,14,4,16,10,2,95,84,63,30.18,30.07,29.94,10,9,1,5,2,,0.00,0,,219
2012-12-23,23,16,9,20,14,8,94,89,79,30.05,29.99,29.91,10,9,3,9,2,,0.00,3,,7
2012-12-24,25,20,14,21,17,12,93,87,81,30.11,29.97,29.91,10,10,10,10,4,,0.00,7,,357
2012-12-25,19,15,11,16,12,9,95,83,71,30.34,30.28,30.13,10,10,10,10,5,,0.00,3,,346
2012-12-26,25,22,19,21,19,16,91,83,75,30.26,30.15,30.08,10,10,10,17,9,25,0.00,8,,360
2012-12-27,25,24,22,20,19,18,89,82,75,30.20,30.15,30.11,10,10,7,12,8,18,0.00,8,,7
2012-12-28,29,26,23,27,25,20,98,92,85,30.10,30.00,29.88,10,5,1,6,3,,0.01,8,Snow,86
2012-12-29,25,20,13,25,20,11,96,90,81,30.16,29.97,29.87,10,7,2,13,6,16,0.00,8,Snow,295
2012-12-30,30,20,9,23,12,7,94,83,72,30.27,30.15,29.95,10,8,1,14,6,23,0.00,1,Snow,194
2012-12-31,31,20,8,23,16,4,85,79,69,30.15,30.01,29.92,10,10,4,15,10,22,0.00,2,Snow,278